sensor_id;sensor_type;location;lat;lon;timestamp;P1;durP1;ratioP1;P2;durP2;ratioP2
17390;SDS011;8813;54.444;18.446;2022-08-01T00:01:51;1.80;;;1.80;;
17390;SDS011;8813;54.444;18.446;2022-08-01T00:04:18;1.80;;;1.80;;
17390;SDS011;8813;54.444;18.446;2022-08-01T00:06:45;1.90;;;1.90;;
17390;SDS011;8813;54.444;18.446;2022-08-01T00:09:12;2.00;;;2.00;;
17390;SDS011;8813;54.444;18.446;2022-08-01T00:11:40;1.95;;;1.95;;
17390;SDS011;8813;54.444;18.446;2022-08-01T00:14:08;1.77;;;1.77;;
17390;SDS011;8813;54.444;18.446;2022-08-01T00:16:35;1.70;;;1.70;;
17390;SDS011;8813;54.444;18.446;2022-08-01T00:19:02;1.80;;;1.80;;
17390;SDS011;8813;54.444;18.446;2022-08-01T00:21:29;1.80;;;1.80;;
17390;SDS011;8813;54.444;18.446;2022-08-01T00:23:59;1.80;;;1.80;;
17390;SDS011;8813;54.444;18.446;2022-08-01T00:26:26;1.70;;;1.70;;
17390;SDS011;8813;54.444;18.446;2022-08-01T00:28:54;1.90;;;1.90;;
17390;SDS011;8813;54.444;18.446;2022-08-01T00:31:21;2.00;;;2.00;;
17390;SDS011;8813;54.444;18.446;2022-08-01T00:33:48;2.08;;;2.08;;
17390;SDS011;8813;54.444;18.446;2022-08-01T00:36:16;2.10;;;2.10;;
17390;SDS011;8813;54.444;18.446;2022-08-01T00:38:43;1.80;;;1.80;;
17390;SDS011;8813;54.444;18.446;2022-08-01T00:41:10;1.70;;;1.70;;
17390;SDS011;8813;54.444;18.446;2022-08-01T00:43:37;1.80;;;1.80;;
17390;SDS011;8813;54.444;18.446;2022-08-01T00:46:06;1.70;;;1.70;;
17390;SDS011;8813;54.444;18.446;2022-08-01T00:48:33;1.60;;;1.60;;
17390;SDS011;8813;54.444;18.446;2022-08-01T00:51:00;1.80;;;1.80;;
17390;SDS011;8813;54.444;18.446;2022-08-01T00:53:27;1.83;;;1.83;;
17390;SDS011;8813;54.444;18.446;2022-08-01T00:55:54;1.95;;;1.95;;
17390;SDS011;8813;54.444;18.446;2022-08-01T00:58:21;2.38;;;2.38;;
17390;SDS011;8813;54.444;18.446;2022-08-01T01:00:48;2.10;;;2.10;;
17390;SDS011;8813;54.444;18.446;2022-08-01T01:03:16;2.00;;;2.00;;
17390;SDS011;8813;54.444;18.446;2022-08-01T01:05:45;1.90;;;1.90;;
17390;SDS011;8813;54.444;18.446;2022-08-01T01:08:19;1.90;;;1.90;;
17390;SDS011;8813;54.444;18.446;2022-08-01T01:10:52;2.47;;;2.45;;
17390;SDS011;8813;54.444;18.446;2022-08-01T01:13:23;3.05;;;2.92;;
17390;SDS011;8813;54.444;18.446;2022-08-01T01:15:55;2.10;;;2.10;;
17390;SDS011;8813;54.444;18.446;2022-08-01T01:18:27;1.90;;;1.90;;
17390;SDS011;8813;54.444;18.446;2022-08-01T01:20:59;2.15;;;2.10;;
17390;SDS011;8813;54.444;18.446;2022-08-01T01:23:43;1.80;;;1.80;;
17390;SDS011;8813;54.444;18.446;2022-08-01T01:26:19;1.60;;;1.60;;
17390;SDS011;8813;54.444;18.446;2022-08-01T01:28:56;1.50;;;1.50;;
17390;SDS011;8813;54.444;18.446;2022-08-01T01:31:26;1.70;;;1.70;;
17390;SDS011;8813;54.444;18.446;2022-08-01T01:33:54;1.80;;;1.80;;
17390;SDS011;8813;54.444;18.446;2022-08-01T01:36:22;1.90;;;1.90;;
17390;SDS011;8813;54.444;18.446;2022-08-01T01:38:51;1.80;;;1.80;;
17390;SDS011;8813;54.444;18.446;2022-08-01T01:41:17;2.05;;;2.05;;
17390;SDS011;8813;54.444;18.446;2022-08-01T01:43:45;2.22;;;2.22;;
17390;SDS011;8813;54.444;18.446;2022-08-01T01:46:15;2.20;;;2.20;;
17390;SDS011;8813;54.444;18.446;2022-08-01T01:48:44;2.25;;;2.25;;
17390;SDS011;8813;54.444;18.446;2022-08-01T01:51:11;2.20;;;2.20;;
17390;SDS011;8813;54.444;18.446;2022-08-01T01:53:39;2.00;;;2.00;;
17390;SDS011;8813;54.444;18.446;2022-08-01T01:56:07;3.05;;;2.95;;
17390;SDS011;8813;54.444;18.446;2022-08-01T01:58:36;2.20;;;2.20;;
17390;SDS011;8813;54.444;18.446;2022-08-01T02:01:04;2.20;;;2.20;;
17390;SDS011;8813;54.444;18.446;2022-08-01T02:03:34;2.20;;;2.20;;
17390;SDS011;8813;54.444;18.446;2022-08-01T02:06:02;2.22;;;2.22;;
17390;SDS011;8813;54.444;18.446;2022-08-01T02:08:30;2.20;;;2.20;;
17390;SDS011;8813;54.444;18.446;2022-08-01T02:10:58;2.20;;;2.20;;
17390;SDS011;8813;54.444;18.446;2022-08-01T02:13:43;2.10;;;2.10;;
17390;SDS011;8813;54.444;18.446;2022-08-01T02:16:12;2.00;;;2.00;;
17390;SDS011;8813;54.444;18.446;2022-08-01T02:18:40;2.00;;;2.00;;
17390;SDS011;8813;54.444;18.446;2022-08-01T02:21:08;2.10;;;2.10;;
17390;SDS011;8813;54.444;18.446;2022-08-01T02:23:37;2.10;;;2.10;;
17390;SDS011;8813;54.444;18.446;2022-08-01T02:26:07;2.00;;;2.00;;
17390;SDS011;8813;54.444;18.446;2022-08-01T02:28:37;2.10;;;2.10;;
17390;SDS011;8813;54.444;18.446;2022-08-01T02:31:08;2.00;;;2.00;;
17390;SDS011;8813;54.444;18.446;2022-08-01T02:33:43;2.20;;;2.20;;
17390;SDS011;8813;54.444;18.446;2022-08-01T02:36:11;2.10;;;2.10;;
17390;SDS011;8813;54.444;18.446;2022-08-01T02:38:40;2.20;;;2.20;;
17390;SDS011;8813;54.444;18.446;2022-08-01T02:41:09;2.20;;;2.20;;
17390;SDS011;8813;54.444;18.446;2022-08-01T02:43:38;2.20;;;2.20;;
17390;SDS011;8813;54.444;18.446;2022-08-01T02:46:09;2.10;;;2.10;;
17390;SDS011;8813;54.444;18.446;2022-08-01T02:48:39;1.90;;;1.90;;
17390;SDS011;8813;54.444;18.446;2022-08-01T02:51:08;1.90;;;1.90;;
17390;SDS011;8813;54.444;18.446;2022-08-01T02:53:37;1.70;;;1.70;;
17390;SDS011;8813;54.444;18.446;2022-08-01T02:56:06;1.85;;;1.85;;
17390;SDS011;8813;54.444;18.446;2022-08-01T02:58:35;1.90;;;1.90;;
17390;SDS011;8813;54.444;18.446;2022-08-01T03:01:02;1.83;;;1.83;;
17390;SDS011;8813;54.444;18.446;2022-08-01T03:03:30;2.10;;;2.10;;
17390;SDS011;8813;54.444;18.446;2022-08-01T03:05:58;2.50;;;2.50;;
17390;SDS011;8813;54.444;18.446;2022-08-01T03:08:26;2.50;;;2.50;;
17390;SDS011;8813;54.444;18.446;2022-08-01T03:10:54;2.30;;;2.30;;
17390;SDS011;8813;54.444;18.446;2022-08-01T03:13:21;2.50;;;2.50;;
17390;SDS011;8813;54.444;18.446;2022-08-01T03:15:50;2.50;;;2.50;;
17390;SDS011;8813;54.444;18.446;2022-08-01T03:18:19;2.50;;;2.50;;
17390;SDS011;8813;54.444;18.446;2022-08-01T03:20:47;2.40;;;2.40;;
17390;SDS011;8813;54.444;18.446;2022-08-01T03:23:16;2.40;;;2.40;;
17390;SDS011;8813;54.444;18.446;2022-08-01T03:25:43;2.30;;;2.30;;
17390;SDS011;8813;54.444;18.446;2022-08-01T03:28:12;2.30;;;2.30;;
17390;SDS011;8813;54.444;18.446;2022-08-01T03:30:40;2.30;;;2.30;;
17390;SDS011;8813;54.444;18.446;2022-08-01T03:33:07;2.20;;;2.20;;
17390;SDS011;8813;54.444;18.446;2022-08-01T03:35:36;2.50;;;2.50;;
17390;SDS011;8813;54.444;18.446;2022-08-01T03:38:05;3.70;;;2.60;;
17390;SDS011;8813;54.444;18.446;2022-08-01T03:40:38;2.30;;;2.30;;
17390;SDS011;8813;54.444;18.446;2022-08-01T03:43:07;2.90;;;2.85;;
17390;SDS011;8813;54.444;18.446;2022-08-01T03:45:38;2.40;;;2.40;;
17390;SDS011;8813;54.444;18.446;2022-08-01T03:48:08;2.30;;;2.30;;
17390;SDS011;8813;54.444;18.446;2022-08-01T03:50:37;2.35;;;2.35;;
17390;SDS011;8813;54.444;18.446;2022-08-01T03:53:06;2.20;;;2.20;;
17390;SDS011;8813;54.444;18.446;2022-08-01T03:55:35;2.30;;;2.30;;
17390;SDS011;8813;54.444;18.446;2022-08-01T03:58:04;2.20;;;2.20;;
17390;SDS011;8813;54.444;18.446;2022-08-01T04:00:31;2.22;;;2.22;;
17390;SDS011;8813;54.444;18.446;2022-08-01T04:02:59;2.20;;;2.20;;
17390;SDS011;8813;54.444;18.446;2022-08-01T04:05:27;2.28;;;2.28;;
17390;SDS011;8813;54.444;18.446;2022-08-01T04:07:57;2.88;;;2.67;;
17390;SDS011;8813;54.444;18.446;2022-08-01T04:10:27;2.20;;;2.20;;
17390;SDS011;8813;54.444;18.446;2022-08-01T04:12:57;2.30;;;2.30;;
17390;SDS011;8813;54.444;18.446;2022-08-01T04:15:25;2.30;;;2.30;;
17390;SDS011;8813;54.444;18.446;2022-08-01T04:17:52;2.30;;;2.30;;
17390;SDS011;8813;54.444;18.446;2022-08-01T04:20:20;2.40;;;2.40;;
17390;SDS011;8813;54.444;18.446;2022-08-01T04:22:47;2.10;;;2.10;;
17390;SDS011;8813;54.444;18.446;2022-08-01T04:25:15;2.10;;;2.10;;
17390;SDS011;8813;54.444;18.446;2022-08-01T04:27:47;2.40;;;2.40;;
17390;SDS011;8813;54.444;18.446;2022-08-01T04:30:17;2.30;;;2.30;;
17390;SDS011;8813;54.444;18.446;2022-08-01T04:32:44;2.20;;;2.20;;
17390;SDS011;8813;54.444;18.446;2022-08-01T04:35:13;2.20;;;2.20;;
17390;SDS011;8813;54.444;18.446;2022-08-01T04:37:42;2.30;;;2.30;;
17390;SDS011;8813;54.444;18.446;2022-08-01T04:40:11;2.08;;;2.08;;
17390;SDS011;8813;54.444;18.446;2022-08-01T04:42:38;2.75;;;2.70;;
17390;SDS011;8813;54.444;18.446;2022-08-01T04:45:06;2.00;;;2.00;;
17390;SDS011;8813;54.444;18.446;2022-08-01T04:47:36;5.28;;;4.90;;
17390;SDS011;8813;54.444;18.446;2022-08-01T04:50:04;2.70;;;2.63;;
17390;SDS011;8813;54.444;18.446;2022-08-01T04:52:32;2.60;;;2.53;;
17390;SDS011;8813;54.444;18.446;2022-08-01T04:55:00;2.47;;;2.47;;
17390;SDS011;8813;54.444;18.446;2022-08-01T04:57:27;2.30;;;2.30;;
17390;SDS011;8813;54.444;18.446;2022-08-01T04:59:54;2.25;;;2.25;;
17390;SDS011;8813;54.444;18.446;2022-08-01T05:02:23;2.10;;;2.10;;
17390;SDS011;8813;54.444;18.446;2022-08-01T05:04:54;2.20;;;2.20;;
17390;SDS011;8813;54.444;18.446;2022-08-01T05:07:22;2.63;;;2.63;;
17390;SDS011;8813;54.444;18.446;2022-08-01T05:09:48;2.17;;;2.17;;
17390;SDS011;8813;54.444;18.446;2022-08-01T05:12:16;1.90;;;1.90;;
17390;SDS011;8813;54.444;18.446;2022-08-01T05:14:46;2.10;;;2.10;;
17390;SDS011;8813;54.444;18.446;2022-08-01T05:17:13;3.42;;;3.33;;
17390;SDS011;8813;54.444;18.446;2022-08-01T05:19:40;1.90;;;1.90;;
17390;SDS011;8813;54.444;18.446;2022-08-01T05:22:09;2.00;;;2.00;;
17390;SDS011;8813;54.444;18.446;2022-08-01T05:24:37;2.10;;;2.10;;
17390;SDS011;8813;54.444;18.446;2022-08-01T05:27:05;1.90;;;1.90;;
17390;SDS011;8813;54.444;18.446;2022-08-01T05:29:35;1.92;;;1.92;;
17390;SDS011;8813;54.444;18.446;2022-08-01T05:32:03;1.80;;;1.80;;
17390;SDS011;8813;54.444;18.446;2022-08-01T05:34:30;2.08;;;2.08;;
17390;SDS011;8813;54.444;18.446;2022-08-01T05:36:58;1.80;;;1.80;;
17390;SDS011;8813;54.444;18.446;2022-08-01T05:39:30;2.25;;;2.25;;
17390;SDS011;8813;54.444;18.446;2022-08-01T05:41:57;1.90;;;1.90;;
17390;SDS011;8813;54.444;18.446;2022-08-01T05:44:23;4.05;;;3.88;;
17390;SDS011;8813;54.444;18.446;2022-08-01T05:46:51;1.70;;;1.70;;
17390;SDS011;8813;54.444;18.446;2022-08-01T05:49:18;1.70;;;1.70;;
17390;SDS011;8813;54.444;18.446;2022-08-01T05:51:45;1.80;;;1.80;;
17390;SDS011;8813;54.444;18.446;2022-08-01T05:54:13;1.92;;;1.92;;
17390;SDS011;8813;54.444;18.446;2022-08-01T05:56:41;1.60;;;1.60;;
17390;SDS011;8813;54.444;18.446;2022-08-01T05:59:09;1.70;;;1.70;;
17390;SDS011;8813;54.444;18.446;2022-08-01T06:01:36;1.70;;;1.70;;
17390;SDS011;8813;54.444;18.446;2022-08-01T06:04:03;1.77;;;1.77;;
17390;SDS011;8813;54.444;18.446;2022-08-01T06:06:30;1.70;;;1.70;;
17390;SDS011;8813;54.444;18.446;2022-08-01T06:08:57;1.70;;;1.70;;
17390;SDS011;8813;54.444;18.446;2022-08-01T06:11:24;1.80;;;1.80;;
17390;SDS011;8813;54.444;18.446;2022-08-01T06:13:52;2.20;;;2.20;;
17390;SDS011;8813;54.444;18.446;2022-08-01T06:16:19;1.63;;;1.63;;
17390;SDS011;8813;54.444;18.446;2022-08-01T06:18:46;1.60;;;1.60;;
17390;SDS011;8813;54.444;18.446;2022-08-01T06:21:13;1.50;;;1.50;;
17390;SDS011;8813;54.444;18.446;2022-08-01T06:23:40;1.30;;;1.30;;
17390;SDS011;8813;54.444;18.446;2022-08-01T06:26:08;1.50;;;1.50;;
17390;SDS011;8813;54.444;18.446;2022-08-01T06:28:35;1.33;;;1.33;;
17390;SDS011;8813;54.444;18.446;2022-08-01T06:31:03;1.25;;;1.25;;
17390;SDS011;8813;54.444;18.446;2022-08-01T06:33:30;1.23;;;1.23;;
17390;SDS011;8813;54.444;18.446;2022-08-01T06:35:57;1.33;;;1.33;;
17390;SDS011;8813;54.444;18.446;2022-08-01T06:38:24;1.23;;;1.23;;
17390;SDS011;8813;54.444;18.446;2022-08-01T06:40:51;1.10;;;1.10;;
17390;SDS011;8813;54.444;18.446;2022-08-01T06:43:18;1.02;;;1.02;;
17390;SDS011;8813;54.444;18.446;2022-08-01T06:45:46;1.00;;;1.00;;
17390;SDS011;8813;54.444;18.446;2022-08-01T06:48:14;1.10;;;1.10;;
17390;SDS011;8813;54.444;18.446;2022-08-01T06:50:41;1.20;;;1.20;;
17390;SDS011;8813;54.444;18.446;2022-08-01T06:53:08;1.17;;;1.17;;
17390;SDS011;8813;54.444;18.446;2022-08-01T06:55:35;1.10;;;1.10;;
17390;SDS011;8813;54.444;18.446;2022-08-01T06:58:02;1.30;;;1.20;;
17390;SDS011;8813;54.444;18.446;2022-08-01T07:00:29;1.30;;;1.30;;
17390;SDS011;8813;54.444;18.446;2022-08-01T07:02:56;0.90;;;0.90;;
17390;SDS011;8813;54.444;18.446;2022-08-01T07:05:25;1.08;;;1.08;;
17390;SDS011;8813;54.444;18.446;2022-08-01T07:07:52;1.00;;;1.00;;
17390;SDS011;8813;54.444;18.446;2022-08-01T07:10:31;1.10;;;1.10;;
17390;SDS011;8813;54.444;18.446;2022-08-01T07:12:59;0.90;;;0.90;;
17390;SDS011;8813;54.444;18.446;2022-08-01T07:15:25;1.65;;;1.65;;
17390;SDS011;8813;54.444;18.446;2022-08-01T07:17:52;1.00;;;1.00;;
17390;SDS011;8813;54.444;18.446;2022-08-01T07:20:19;0.70;;;0.70;;
17390;SDS011;8813;54.444;18.446;2022-08-01T07:22:48;2.15;;;0.90;;
17390;SDS011;8813;54.444;18.446;2022-08-01T07:25:15;0.90;;;0.90;;
17390;SDS011;8813;54.444;18.446;2022-08-01T07:27:41;0.90;;;0.90;;
17390;SDS011;8813;54.444;18.446;2022-08-01T07:30:10;0.80;;;0.80;;
17390;SDS011;8813;54.444;18.446;2022-08-01T07:32:37;1.02;;;1.02;;
17390;SDS011;8813;54.444;18.446;2022-08-01T07:35:05;0.80;;;0.80;;
17390;SDS011;8813;54.444;18.446;2022-08-01T07:37:32;0.80;;;0.80;;
17390;SDS011;8813;54.444;18.446;2022-08-01T07:40:00;0.90;;;0.90;;
17390;SDS011;8813;54.444;18.446;2022-08-01T07:42:29;0.90;;;0.90;;
17390;SDS011;8813;54.444;18.446;2022-08-01T07:44:56;1.55;;;1.55;;
17390;SDS011;8813;54.444;18.446;2022-08-01T07:47:23;0.80;;;0.80;;
17390;SDS011;8813;54.444;18.446;2022-08-01T07:49:51;0.80;;;0.80;;
17390;SDS011;8813;54.444;18.446;2022-08-01T07:52:18;0.90;;;0.90;;
17390;SDS011;8813;54.444;18.446;2022-08-01T07:54:45;0.85;;;0.85;;
17390;SDS011;8813;54.444;18.446;2022-08-01T07:57:13;0.80;;;0.80;;
17390;SDS011;8813;54.444;18.446;2022-08-01T07:59:40;0.80;;;0.80;;
17390;SDS011;8813;54.444;18.446;2022-08-01T08:02:07;0.85;;;0.85;;
17390;SDS011;8813;54.444;18.446;2022-08-01T08:04:34;0.80;;;0.80;;
17390;SDS011;8813;54.444;18.446;2022-08-01T08:07:01;0.80;;;0.80;;
17390;SDS011;8813;54.444;18.446;2022-08-01T08:09:28;0.90;;;0.90;;
17390;SDS011;8813;54.444;18.446;2022-08-01T08:11:56;0.80;;;0.80;;
17390;SDS011;8813;54.444;18.446;2022-08-01T08:14:24;0.90;;;0.90;;
17390;SDS011;8813;54.444;18.446;2022-08-01T08:16:51;0.90;;;0.90;;
17390;SDS011;8813;54.444;18.446;2022-08-01T08:19:18;0.80;;;0.80;;
17390;SDS011;8813;54.444;18.446;2022-08-01T08:21:45;0.95;;;0.95;;
17390;SDS011;8813;54.444;18.446;2022-08-01T08:24:12;0.80;;;0.80;;
17390;SDS011;8813;54.444;18.446;2022-08-01T08:26:49;0.80;;;0.80;;
17390;SDS011;8813;54.444;18.446;2022-08-01T08:29:18;1.00;;;1.00;;
17390;SDS011;8813;54.444;18.446;2022-08-01T08:31:47;1.00;;;1.00;;
17390;SDS011;8813;54.444;18.446;2022-08-01T08:34:14;1.00;;;1.00;;
17390;SDS011;8813;54.444;18.446;2022-08-01T08:36:41;1.25;;;1.25;;
17390;SDS011;8813;54.444;18.446;2022-08-01T08:39:08;1.38;;;1.38;;
17390;SDS011;8813;54.444;18.446;2022-08-01T08:41:36;0.90;;;0.90;;
17390;SDS011;8813;54.444;18.446;2022-08-01T08:44:03;1.02;;;1.02;;
17390;SDS011;8813;54.444;18.446;2022-08-01T08:46:31;0.80;;;0.80;;
17390;SDS011;8813;54.444;18.446;2022-08-01T08:49:01;1.00;;;1.00;;
17390;SDS011;8813;54.444;18.446;2022-08-01T08:51:29;1.20;;;1.20;;
17390;SDS011;8813;54.444;18.446;2022-08-01T08:53:57;1.98;;;1.88;;
17390;SDS011;8813;54.444;18.446;2022-08-01T08:56:25;1.00;;;1.00;;
17390;SDS011;8813;54.444;18.446;2022-08-01T08:58:55;1.05;;;1.05;;
17390;SDS011;8813;54.444;18.446;2022-08-01T09:01:22;0.95;;;0.95;;
17390;SDS011;8813;54.444;18.446;2022-08-01T09:03:49;0.90;;;0.90;;
17390;SDS011;8813;54.444;18.446;2022-08-01T09:06:17;0.80;;;0.80;;
17390;SDS011;8813;54.444;18.446;2022-08-01T09:08:44;0.90;;;0.90;;
17390;SDS011;8813;54.444;18.446;2022-08-01T09:11:11;0.80;;;0.80;;
17390;SDS011;8813;54.444;18.446;2022-08-01T09:13:38;0.82;;;0.82;;
17390;SDS011;8813;54.444;18.446;2022-08-01T09:16:05;0.85;;;0.85;;
17390;SDS011;8813;54.444;18.446;2022-08-01T09:18:33;0.80;;;0.80;;
17390;SDS011;8813;54.444;18.446;2022-08-01T09:21:08;0.90;;;0.90;;
17390;SDS011;8813;54.444;18.446;2022-08-01T09:23:38;0.90;;;0.90;;
17390;SDS011;8813;54.444;18.446;2022-08-01T09:26:07;1.00;;;1.00;;
17390;SDS011;8813;54.444;18.446;2022-08-01T09:28:35;0.90;;;0.90;;
17390;SDS011;8813;54.444;18.446;2022-08-01T09:31:06;1.00;;;1.00;;
17390;SDS011;8813;54.444;18.446;2022-08-01T09:33:50;0.80;;;0.80;;
17390;SDS011;8813;54.444;18.446;2022-08-01T09:36:19;0.90;;;0.90;;
17390;SDS011;8813;54.444;18.446;2022-08-01T09:38:48;0.82;;;0.82;;
17390;SDS011;8813;54.444;18.446;2022-08-01T09:41:16;7.78;;;1.30;;
17390;SDS011;8813;54.444;18.446;2022-08-01T09:43:47;0.90;;;0.90;;
17390;SDS011;8813;54.444;18.446;2022-08-01T09:46:15;0.80;;;0.80;;
17390;SDS011;8813;54.444;18.446;2022-08-01T09:48:56;0.80;;;0.80;;
17390;SDS011;8813;54.444;18.446;2022-08-01T09:51:29;0.70;;;0.70;;
17390;SDS011;8813;54.444;18.446;2022-08-01T09:54:00;0.98;;;0.98;;
17390;SDS011;8813;54.444;18.446;2022-08-01T09:56:35;4.45;;;1.42;;
17390;SDS011;8813;54.444;18.446;2022-08-01T09:59:03;1.02;;;1.02;;
17390;SDS011;8813;54.444;18.446;2022-08-01T10:01:44;1.00;;;1.00;;
17390;SDS011;8813;54.444;18.446;2022-08-01T10:04:12;0.95;;;0.95;;
17390;SDS011;8813;54.444;18.446;2022-08-01T10:06:41;1.08;;;1.08;;
17390;SDS011;8813;54.444;18.446;2022-08-01T10:09:11;1.00;;;1.00;;
17390;SDS011;8813;54.444;18.446;2022-08-01T10:11:40;0.90;;;0.90;;
17390;SDS011;8813;54.444;18.446;2022-08-01T10:14:08;0.80;;;0.80;;
17390;SDS011;8813;54.444;18.446;2022-08-01T10:16:38;0.90;;;0.90;;
17390;SDS011;8813;54.444;18.446;2022-08-01T10:19:06;0.80;;;0.80;;
17390;SDS011;8813;54.444;18.446;2022-08-01T10:21:34;0.80;;;0.80;;
17390;SDS011;8813;54.444;18.446;2022-08-01T10:24:03;0.93;;;0.93;;
17390;SDS011;8813;54.444;18.446;2022-08-01T10:26:33;1.63;;;1.63;;
17390;SDS011;8813;54.444;18.446;2022-08-01T10:29:00;1.10;;;1.10;;
17390;SDS011;8813;54.444;18.446;2022-08-01T10:31:28;1.02;;;1.02;;
17390;SDS011;8813;54.444;18.446;2022-08-01T10:33:58;0.98;;;0.98;;
17390;SDS011;8813;54.444;18.446;2022-08-01T10:36:25;1.50;;;1.50;;
17390;SDS011;8813;54.444;18.446;2022-08-01T10:38:52;3.25;;;1.10;;
17390;SDS011;8813;54.444;18.446;2022-08-01T10:41:20;0.90;;;0.90;;
17390;SDS011;8813;54.444;18.446;2022-08-01T10:43:49;1.42;;;1.42;;
17390;SDS011;8813;54.444;18.446;2022-08-01T10:46:17;1.00;;;1.00;;
17390;SDS011;8813;54.444;18.446;2022-08-01T10:48:45;1.10;;;1.10;;
17390;SDS011;8813;54.444;18.446;2022-08-01T10:51:15;0.90;;;0.90;;
17390;SDS011;8813;54.444;18.446;2022-08-01T10:53:48;0.80;;;0.80;;
17390;SDS011;8813;54.444;18.446;2022-08-01T10:56:17;1.27;;;1.27;;
17390;SDS011;8813;54.444;18.446;2022-08-01T10:58:46;0.90;;;0.90;;
17390;SDS011;8813;54.444;18.446;2022-08-01T11:01:16;0.80;;;0.80;;
17390;SDS011;8813;54.444;18.446;2022-08-01T11:03:58;0.90;;;0.90;;
17390;SDS011;8813;54.444;18.446;2022-08-01T11:06:34;1.15;;;1.15;;
17390;SDS011;8813;54.444;18.446;2022-08-01T11:09:04;1.00;;;1.00;;
17390;SDS011;8813;54.444;18.446;2022-08-01T11:11:32;1.00;;;1.00;;
17390;SDS011;8813;54.444;18.446;2022-08-01T11:14:02;0.80;;;0.80;;
17390;SDS011;8813;54.444;18.446;2022-08-01T11:16:36;0.93;;;0.93;;
17390;SDS011;8813;54.444;18.446;2022-08-01T11:19:05;1.00;;;1.00;;
17390;SDS011;8813;54.444;18.446;2022-08-01T11:27:24;0.90;;;0.90;;
17390;SDS011;8813;54.444;18.446;2022-08-01T11:32:53;1.20;;;1.20;;
17390;SDS011;8813;54.444;18.446;2022-08-01T11:35:21;1.00;;;1.00;;
17390;SDS011;8813;54.444;18.446;2022-08-01T11:37:52;0.90;;;0.90;;
17390;SDS011;8813;54.444;18.446;2022-08-01T11:40:21;1.13;;;1.13;;
17390;SDS011;8813;54.444;18.446;2022-08-01T11:42:49;0.90;;;0.90;;
17390;SDS011;8813;54.444;18.446;2022-08-01T11:45:17;0.90;;;0.90;;
17390;SDS011;8813;54.444;18.446;2022-08-01T11:47:45;2.35;;;2.25;;
17390;SDS011;8813;54.444;18.446;2022-08-01T11:50:33;0.80;;;0.80;;
17390;SDS011;8813;54.444;18.446;2022-08-01T11:53:02;0.93;;;0.93;;
17390;SDS011;8813;54.444;18.446;2022-08-01T11:55:30;0.90;;;0.90;;
17390;SDS011;8813;54.444;18.446;2022-08-01T11:57:58;0.88;;;0.88;;
17390;SDS011;8813;54.444;18.446;2022-08-01T12:00:26;1.35;;;1.35;;
17390;SDS011;8813;54.444;18.446;2022-08-01T12:02:59;0.80;;;0.80;;
17390;SDS011;8813;54.444;18.446;2022-08-01T12:05:27;0.90;;;0.90;;
17390;SDS011;8813;54.444;18.446;2022-08-01T12:07:57;1.10;;;1.10;;
17390;SDS011;8813;54.444;18.446;2022-08-01T12:10:25;3.78;;;1.20;;
17390;SDS011;8813;54.444;18.446;2022-08-01T12:12:54;1.52;;;1.42;;
17390;SDS011;8813;54.444;18.446;2022-08-01T12:15:23;1.50;;;1.10;;
17390;SDS011;8813;54.444;18.446;2022-08-01T12:17:51;1.00;;;1.00;;
17390;SDS011;8813;54.444;18.446;2022-08-01T12:20:22;1.08;;;1.08;;
17390;SDS011;8813;54.444;18.446;2022-08-01T12:22:52;0.98;;;0.98;;
17390;SDS011;8813;54.444;18.446;2022-08-01T12:25:22;1.10;;;1.10;;
17390;SDS011;8813;54.444;18.446;2022-08-01T12:27:50;1.10;;;1.10;;
17390;SDS011;8813;54.444;18.446;2022-08-01T12:30:18;1.00;;;1.00;;
17390;SDS011;8813;54.444;18.446;2022-08-01T12:32:47;0.98;;;0.98;;
17390;SDS011;8813;54.444;18.446;2022-08-01T12:35:16;1.00;;;1.00;;
17390;SDS011;8813;54.444;18.446;2022-08-01T12:37:44;1.00;;;1.00;;
17390;SDS011;8813;54.444;18.446;2022-08-01T12:40:13;0.90;;;0.90;;
17390;SDS011;8813;54.444;18.446;2022-08-01T12:42:43;1.10;;;1.10;;
17390;SDS011;8813;54.444;18.446;2022-08-01T12:45:12;1.05;;;1.05;;
17390;SDS011;8813;54.444;18.446;2022-08-01T12:47:41;0.93;;;0.93;;
17390;SDS011;8813;54.444;18.446;2022-08-01T12:50:10;0.90;;;0.90;;
17390;SDS011;8813;54.444;18.446;2022-08-01T12:52:38;0.90;;;0.90;;
17390;SDS011;8813;54.444;18.446;2022-08-01T12:55:07;1.10;;;1.10;;
17390;SDS011;8813;54.444;18.446;2022-08-01T12:57:37;1.52;;;1.52;;
17390;SDS011;8813;54.444;18.446;2022-08-01T13:00:11;1.00;;;1.00;;
17390;SDS011;8813;54.444;18.446;2022-08-01T13:02:40;1.35;;;1.35;;
17390;SDS011;8813;54.444;18.446;2022-08-01T13:05:07;1.00;;;1.00;;
17390;SDS011;8813;54.444;18.446;2022-08-01T13:07:39;1.00;;;1.00;;
17390;SDS011;8813;54.444;18.446;2022-08-01T13:10:08;0.90;;;0.90;;
17390;SDS011;8813;54.444;18.446;2022-08-01T13:12:35;0.80;;;0.80;;
17390;SDS011;8813;54.444;18.446;2022-08-01T13:15:23;0.90;;;0.90;;
17390;SDS011;8813;54.444;18.446;2022-08-01T13:17:57;0.93;;;0.93;;
17390;SDS011;8813;54.444;18.446;2022-08-01T13:20:30;1.02;;;1.02;;
17390;SDS011;8813;54.444;18.446;2022-08-01T13:23:11;1.52;;;1.45;;
17390;SDS011;8813;54.444;18.446;2022-08-01T13:25:46;1.00;;;1.00;;
17390;SDS011;8813;54.444;18.446;2022-08-01T13:28:19;0.90;;;0.90;;
17390;SDS011;8813;54.444;18.446;2022-08-01T13:30:52;1.00;;;1.00;;
17390;SDS011;8813;54.444;18.446;2022-08-01T13:33:21;0.77;;;0.77;;
17390;SDS011;8813;54.444;18.446;2022-08-01T13:35:49;0.80;;;0.80;;
17390;SDS011;8813;54.444;18.446;2022-08-01T13:38:17;0.80;;;0.80;;
17390;SDS011;8813;54.444;18.446;2022-08-01T13:40:45;0.70;;;0.70;;
17390;SDS011;8813;54.444;18.446;2022-08-01T13:43:12;2.05;;;0.75;;
17390;SDS011;8813;54.444;18.446;2022-08-01T13:45:40;1.02;;;1.02;;
17390;SDS011;8813;54.444;18.446;2022-08-01T13:48:08;0.80;;;0.80;;
17390;SDS011;8813;54.444;18.446;2022-08-01T13:50:35;0.90;;;0.90;;
17390;SDS011;8813;54.444;18.446;2022-08-01T13:53:03;0.80;;;0.80;;
17390;SDS011;8813;54.444;18.446;2022-08-01T13:55:30;0.90;;;0.90;;
17390;SDS011;8813;54.444;18.446;2022-08-01T13:57:57;0.70;;;0.70;;
17390;SDS011;8813;54.444;18.446;2022-08-01T14:00:24;1.00;;;1.00;;
17390;SDS011;8813;54.444;18.446;2022-08-01T14:02:51;0.80;;;0.80;;
17390;SDS011;8813;54.444;18.446;2022-08-01T14:05:19;0.70;;;0.70;;
17390;SDS011;8813;54.444;18.446;2022-08-01T14:07:47;0.85;;;0.85;;
17390;SDS011;8813;54.444;18.446;2022-08-01T14:10:14;1.35;;;1.35;;
17390;SDS011;8813;54.444;18.446;2022-08-01T14:12:40;1.23;;;1.23;;
17390;SDS011;8813;54.444;18.446;2022-08-01T14:15:08;0.93;;;0.93;;
17390;SDS011;8813;54.444;18.446;2022-08-01T14:17:35;0.80;;;0.80;;
17390;SDS011;8813;54.444;18.446;2022-08-01T14:20:03;0.80;;;0.80;;
17390;SDS011;8813;54.444;18.446;2022-08-01T14:22:32;0.90;;;0.90;;
17390;SDS011;8813;54.444;18.446;2022-08-01T14:25:00;1.00;;;1.00;;
17390;SDS011;8813;54.444;18.446;2022-08-01T14:27:28;1.02;;;1.02;;
17390;SDS011;8813;54.444;18.446;2022-08-01T14:29:56;0.95;;;0.95;;
17390;SDS011;8813;54.444;18.446;2022-08-01T14:32:23;0.93;;;0.93;;
17390;SDS011;8813;54.444;18.446;2022-08-01T14:34:50;0.90;;;0.90;;
17390;SDS011;8813;54.444;18.446;2022-08-01T14:37:17;0.90;;;0.90;;
17390;SDS011;8813;54.444;18.446;2022-08-01T14:39:46;1.00;;;1.00;;
17390;SDS011;8813;54.444;18.446;2022-08-01T14:42:13;0.90;;;0.90;;
17390;SDS011;8813;54.444;18.446;2022-08-01T14:44:40;0.98;;;0.98;;
17390;SDS011;8813;54.444;18.446;2022-08-01T14:47:06;0.70;;;0.70;;
17390;SDS011;8813;54.444;18.446;2022-08-01T14:49:34;0.90;;;0.90;;
17390;SDS011;8813;54.444;18.446;2022-08-01T14:52:00;0.90;;;0.90;;
17390;SDS011;8813;54.444;18.446;2022-08-01T14:54:28;0.80;;;0.80;;
17390;SDS011;8813;54.444;18.446;2022-08-01T14:56:57;0.88;;;0.88;;
17390;SDS011;8813;54.444;18.446;2022-08-01T14:59:24;0.95;;;0.95;;
17390;SDS011;8813;54.444;18.446;2022-08-01T15:01:52;1.50;;;1.15;;
17390;SDS011;8813;54.444;18.446;2022-08-01T15:04:19;0.70;;;0.70;;
17390;SDS011;8813;54.444;18.446;2022-08-01T15:06:46;1.45;;;1.45;;